AirNav   Everest Fuels
 
 997 users online  

9IL7 Black Airport
Hillsdale, Illinois, USA

GOING TO HILLSDALE?


FAA INFORMATION EFFECTIVE 01 DECEMBER 2022

Location

FAA Identifier: 9IL7
Lat/Long: 41-36-33.4800N 090-10-53.6400W
41-36.558000N 090-10.894000W
41.6093000,-90.1815667
(estimated)
Elevation: 580 ft. / 177 m (estimated)
Variation: 01E (1985)
Time zone: UTC -6 (UTC -5 during Daylight Saving Time)
Zip code: 61254

Airport Operations

Airport use: Private use. Permission required prior to landing
Activation date: 08/1972
Control tower: no
ARTCC: CHICAGO CENTER
FSS: KANKAKEE FLIGHT SERVICE STATION
Attendance: IREG
Wind indicator: yes
Segmented circle: no

Airport Communications

WX AWOS-3PT at CWI (15 nm NW): 125.525 (563-243-8934)
WX ASOS at MLI (18 nm SW): 121.2 (309-732-8731)
WX ASOS at DVN (18 nm W): 120.175 (563-388-2154)

Nearby radio navigation aids

VOR radial/distance  VOR name  Freq  Var
CVAr110/14.8DAVENPORT VORTAC113.8004E
MZVr045/26.9MOLINE VOR/DME114.4005E
PLLr231/36.4POLO VOR/DME111.2003E
BDFr315/38.0BRADFORD VORTAC114.7000E

 
NDB name  Hdg/Dist  Freq  Var  ID
HILLZ132/12.751700EFN ..-. -.

Airport Services

Fuel available: 100
Airframe service: NONE
Powerplant service: NONE

Runway Information

Runway 1/19

Dimensions: 2250 x 75 ft. / 686 x 23 m
Surface: turf
RUNWAY 1  RUNWAY 19
Traffic pattern: leftright

Helipad H1

Dimensions: 200 x 200 ft. / 61 x 61 m
Surface: turf
Traffic pattern: leftleft
Obstructions: trees
ALSO BLDG NEAR HELIPAD.

Airport Ownership and Management from official FAA records

Ownership: Privately-owned
Owner: ALAN BLACK
29313 136TH AVE NORTH
HILLSDALE, IL 61257
Phone 309-658-2767
Manager: ALAN BLACK
29313 136TH AVE NORTH
HILLSDALE, IL 61257
Phone 309-658-2767

Airport Operational Statistics

Aircraft based on the field: 3
Single engine airplanes: 1
Helicopters: 2
    

Additional Remarks

OWNER DESIRES APRT TO BE CHARTED.
FOR CD CTC CHICAGO ARTCC AT 630-906-8921.

Instrument Procedures

There are no published instrument procedures at 9IL7.

Some nearby airports with instrument procedures:

KCWI - Clinton Municipal Airport (15 nm NW)
KMLI - Quad Cities International Airport (18 nm SW)
KDVN - Davenport Municipal Airport (18 nm W)
KSQI - Whiteside County Airport/Jos H Bittorf Field (24 nm E)
KEZI - Kewanee Municipal Airport (26 nm S)
 
Loc | Ops | Rwys | IFR | FBO | Links
Com | Nav | Svcs | Stats | Notes
Area around 9IL7 (Black Airport)
 
Road maps at: MapQuest Bing Google
 
Aerial photo
No photo
 
Sectional chart

 
Airport distance calculator
Flying to Black Airport? Find the distance to fly.

From to 9IL7

Sunrise and sunset
Times for 04-Dec-2022
 Local
(UTC-6)
 Zulu
(UTC)
Morning civil twilight06:4112:41
Sunrise07:1213:12
Sunset16:3022:30
Evening civil twilight17:0123:01

Current date and time
Zulu (UTC)  05-Dec-2022 01:44:08
Local (UTC-6)  04-Dec-2022 19:44:08
 
METAR
KCWI 
14nm NW 
050056Z AUTO 19008KT 10SM CLR M02/M09 A3001 RMK AO2 SLP178 T10171089 FZRANO
KMLI 
18nm SW 
050052Z 20006KT 10SM CLR 02/M08 A3001 RMK AO2 SLP168 T00221083
KDVN 
18nm W 
050052Z AUTO 20008KT 10SM CLR 01/M09 A3002 RMK AO2 SLP172 T00111089
KSQI 
25nm E 
050056Z AUTO 00000KT 10SM CLR 00/M08 A3003 RMK AO2 SLP037 T00001083 FZRANO
TAF
KMLI 
18nm SW 
041730Z 0418/0518 24011KT P6SM SCT250 FM050100 20007KT P6SM BKN150
NOTAMs
Click for the latest NOTAMs
NOTAMs are issued by the DoD/FAA and will open in a separate window not controlled by AirNav.

 

 
 

Would you like to see your business listed on this page?

 If your business provides an interesting product or service to pilots, flight crews, aircraft, or users of the Black Airport, you should consider listing it here.  To start the listing process, click on the button below
 
Add a business
 

Other Pages about Black Airport

Update a link
 
Copyright © AirNav, LLC. All rights reserved. Privacy Policy  Contact